sensor_id;sensor_type;location;lat;lon;timestamp;pressure;altitude;pressure_sealevel;temperature;humidity
52927;BME280;40783;49.710;8.842;2023-03-21T00:01:51;99315.28;;;8.80;100.00
52927;BME280;40783;49.710;8.842;2023-03-21T00:04:16;99312.47;;;8.82;99.83
52927;BME280;40783;49.710;8.842;2023-03-21T00:06:44;99315.28;;;8.80;100.00
52927;BME280;40783;49.710;8.842;2023-03-21T00:09:09;99313.03;;;8.75;100.00
52927;BME280;40783;49.710;8.842;2023-03-21T00:11:36;99310.81;;;8.71;99.48
52927;BME280;40783;49.710;8.842;2023-03-21T00:14:02;99311.34;;;8.74;100.00
52927;BME280;40783;49.710;8.842;2023-03-21T00:16:27;99309.41;;;8.67;99.73
52927;BME280;40783;49.710;8.842;2023-03-21T00:18:56;99306.31;;;8.52;99.23
52927;BME280;40783;49.710;8.842;2023-03-21T00:21:22;99304.66;;;8.60;100.00
52927;BME280;40783;49.710;8.842;2023-03-21T00:23:53;99298.19;;;8.63;100.00
52927;BME280;40783;49.710;8.842;2023-03-21T00:26:18;99298.75;;;8.67;100.00
52927;BME280;40783;49.710;8.842;2023-03-21T00:28:43;99293.97;;;8.70;100.00
52927;BME280;40783;49.710;8.842;2023-03-21T00:31:09;99292.56;;;8.66;100.00
52927;BME280;40783;49.710;8.842;2023-03-21T00:33:34;99285.84;;;8.62;100.00
52927;BME280;40783;49.710;8.842;2023-03-21T00:36:00;99282.34;;;8.61;100.00
52927;BME280;40783;49.710;8.842;2023-03-21T00:38:27;99276.56;;;8.66;100.00
52927;BME280;40783;49.710;8.842;2023-03-21T00:40:53;99280.22;;;8.65;100.00
52927;BME280;40783;49.710;8.842;2023-03-21T00:43:18;99278.25;;;8.67;100.00
52927;BME280;40783;49.710;8.842;2023-03-21T00:45:47;99270.41;;;8.66;100.00
52927;BME280;40783;49.710;8.842;2023-03-21T00:48:13;99265.63;;;8.69;100.00
52927;BME280;40783;49.710;8.842;2023-03-21T00:50:38;99260.28;;;8.69;100.00
52927;BME280;40783;49.710;8.842;2023-03-21T00:53:04;99262.25;;;8.67;99.42
52927;BME280;40783;49.710;8.842;2023-03-21T00:55:32;99259.47;;;8.59;100.00
52927;BME280;40783;49.710;8.842;2023-03-21T00:57:57;99263.97;;;8.49;99.54
52927;BME280;40783;49.710;8.842;2023-03-21T01:00:25;99264.25;;;8.45;100.00
52927;BME280;40783;49.710;8.842;2023-03-21T01:02:51;99261.69;;;8.44;99.80
52927;BME280;40783;49.710;8.842;2023-03-21T01:05:29;99251.06;;;8.34;100.00
52927;BME280;40783;49.710;8.842;2023-03-21T01:08:27;99251.06;;;8.34;100.00
52927;BME280;40783;49.710;8.842;2023-03-21T01:10:53;99247.25;;;8.37;100.00
52927;BME280;40783;49.710;8.842;2023-03-21T01:13:19;99243.47;;;8.39;100.00
52927;BME280;40783;49.710;8.842;2023-03-21T01:15:52;99236.59;;;8.46;100.00
52927;BME280;40783;49.710;8.842;2023-03-21T01:18:19;99248.25;;;8.45;100.00
52927;BME280;40783;49.710;8.842;2023-03-21T01:20:45;99248.25;;;8.45;100.00
52927;BME280;40783;49.710;8.842;2023-03-21T01:23:11;99245.72;;;8.44;99.70
52927;BME280;40783;49.710;8.842;2023-03-21T01:25:37;99240.94;;;8.48;100.00
52927;BME280;40783;49.710;8.842;2023-03-21T01:28:02;99235.34;;;8.51;100.00
52927;BME280;40783;49.710;8.842;2023-03-21T01:30:27;99238.41;;;8.46;100.00
52927;BME280;40783;49.710;8.842;2023-03-21T01:32:52;99234.22;;;8.43;100.00
52927;BME280;40783;49.710;8.842;2023-03-21T01:35:20;99234.75;;;8.47;100.00
52927;BME280;40783;49.710;8.842;2023-03-21T01:37:48;99234.75;;;8.47;100.00
52927;BME280;40783;49.710;8.842;2023-03-21T01:40:18;99228.31;;;8.50;100.00
52927;BME280;40783;49.710;8.842;2023-03-21T01:42:44;99238.97;;;8.50;100.00
52927;BME280;40783;49.710;8.842;2023-03-21T01:47:56;99229.47;;;8.37;100.00
52927;BME280;40783;49.710;8.842;2023-03-21T01:50:21;99229.44;;;8.27;100.00
52927;BME280;40783;49.710;8.842;2023-03-21T01:52:46;99223.03;;;8.20;100.00
52927;BME280;40783;49.710;8.842;2023-03-21T01:55:14;99226.09;;;8.15;100.00
52927;BME280;40783;49.710;8.842;2023-03-21T01:57:41;99230.84;;;8.02;100.00
52927;BME280;40783;49.710;8.842;2023-03-21T02:00:10;99230.84;;;8.02;100.00
52927;BME280;40783;49.710;8.842;2023-03-21T02:02:37;99240.81;;;8.00;100.00
52927;BME280;40783;49.710;8.842;2023-03-21T02:05:21;99229.44;;;7.98;100.00
52927;BME280;40783;49.710;8.842;2023-03-21T02:07:50;99226.66;;;7.90;100.00
52927;BME280;40783;49.710;8.842;2023-03-21T02:10:18;99228.63;;;7.87;100.00
52927;BME280;40783;49.710;8.842;2023-03-21T02:12:43;99226.38;;;7.73;100.00
52927;BME280;40783;49.710;8.842;2023-03-21T02:15:09;99219.63;;;7.69;100.00
52927;BME280;40783;49.710;8.842;2023-03-21T02:38:26;99197.75;;;7.55;100.00
52927;BME280;40783;49.710;8.842;2023-03-21T02:43:43;99210.06;;;7.56;100.00
52927;BME280;40783;49.710;8.842;2023-03-21T02:46:10;99200.84;;;7.51;100.00
52927;BME280;40783;49.710;8.842;2023-03-21T02:48:37;99193.53;;;7.43;100.00
52927;BME280;40783;49.710;8.842;2023-03-21T02:51:03;99198.84;;;7.43;100.00
52927;BME280;40783;49.710;8.842;2023-03-21T02:53:32;99190.31;;;7.39;100.00
52927;BME280;40783;49.710;8.842;2023-03-21T02:55:58;99189.47;;;7.39;100.00
52927;BME280;40783;49.710;8.842;2023-03-21T02:58:26;99196.31;;;7.32;100.00
52927;BME280;40783;49.710;8.842;2023-03-21T03:00:52;99196.31;;;7.32;100.00
52927;BME280;40783;49.710;8.842;2023-03-21T03:03:22;99186.22;;;7.25;100.00
52927;BME280;40783;49.710;8.842;2023-03-21T03:05:54;99184.94;;;7.20;100.00
52927;BME280;40783;49.710;8.842;2023-03-21T03:11:16;99191.78;;;7.12;100.00
52927;BME280;40783;49.710;8.842;2023-03-21T03:16:22;99192.88;;;7.10;100.00
52927;BME280;40783;49.710;8.842;2023-03-21T03:18:52;99191.19;;;7.09;100.00
52927;BME280;40783;49.710;8.842;2023-03-21T03:21:21;99192.88;;;7.10;100.00
52927;BME280;40783;49.710;8.842;2023-03-21T03:28:55;99184.72;;;7.02;100.00
52927;BME280;40783;49.710;8.842;2023-03-21T03:31:24;99186.94;;;6.96;100.00
52927;BME280;40783;49.710;8.842;2023-03-21T03:33:51;99178.00;;;6.97;100.00
52927;BME280;40783;49.710;8.842;2023-03-21T03:36:18;99181.38;;;7.00;100.00
52927;BME280;40783;49.710;8.842;2023-03-21T03:38:47;99184.28;;;6.96;100.00
52927;BME280;40783;49.710;8.842;2023-03-21T03:41:25;99171.28;;;6.93;100.00
52927;BME280;40783;49.710;8.842;2023-03-21T03:43:52;99179.41;;;6.92;100.00
52927;BME280;40783;49.710;8.842;2023-03-21T03:48:57;99176.44;;;6.85;100.00
52927;BME280;40783;49.710;8.842;2023-03-21T03:54:11;99180.44;;;6.79;100.00
52927;BME280;40783;49.710;8.842;2023-03-21T03:56:35;99189.09;;;6.72;100.00
52927;BME280;40783;49.710;8.842;2023-03-21T03:59:02;99178.47;;;6.72;100.00
52927;BME280;40783;49.710;8.842;2023-03-21T04:01:28;99182.09;;;6.71;100.00
52927;BME280;40783;49.710;8.842;2023-03-21T04:03:53;99187.41;;;6.71;100.00
52927;BME280;40783;49.710;8.842;2023-03-21T04:06:19;99178.47;;;6.72;100.00
52927;BME280;40783;49.710;8.842;2023-03-21T04:08:46;99189.66;;;6.75;100.00
52927;BME280;40783;49.710;8.842;2023-03-21T04:11:16;99187.16;;;6.74;100.00
52927;BME280;40783;49.710;8.842;2023-03-21T04:13:43;99188.84;;;6.75;100.00
52927;BME280;40783;49.710;8.842;2023-03-21T04:16:09;99191.06;;;6.70;100.00
52927;BME280;40783;49.710;8.842;2023-03-21T04:18:35;99186.25;;;6.63;100.00
52927;BME280;40783;49.710;8.842;2023-03-21T04:21:05;99192.97;;;6.58;100.00
52927;BME280;40783;49.710;8.842;2023-03-21T04:23:31;99182.63;;;6.64;100.00
52927;BME280;40783;49.710;8.842;2023-03-21T04:25:57;99184.75;;;6.71;100.00
52927;BME280;40783;49.710;8.842;2023-03-21T04:28:22;99170.25;;;6.75;100.00
52927;BME280;40783;49.710;8.842;2023-03-21T04:30:47;99170.94;;;6.77;100.00
52927;BME280;40783;49.710;8.842;2023-03-21T04:33:13;99170.25;;;6.85;100.00
52927;BME280;40783;49.710;8.842;2023-03-21T04:35:39;99165.38;;;6.80;100.00
52927;BME280;40783;49.710;8.842;2023-03-21T04:38:06;99177.69;;;6.81;100.00
52927;BME280;40783;49.710;8.842;2023-03-21T04:40:31;99167.31;;;6.78;100.00
52927;BME280;40783;49.710;8.842;2023-03-21T04:42:56;99175.03;;;6.81;100.00
52927;BME280;40783;49.710;8.842;2023-03-21T04:45:25;99170.94;;;6.77;100.00
52927;BME280;40783;49.710;8.842;2023-03-21T04:47:50;99172.22;;;6.82;100.00
52927;BME280;40783;49.710;8.842;2023-03-21T04:50:15;99161.19;;;6.87;100.00
52927;BME280;40783;49.710;8.842;2023-03-21T04:52:41;99168.72;;;6.82;100.00
52927;BME280;40783;49.710;8.842;2023-03-21T04:55:08;99167.88;;;6.81;100.00
52927;BME280;40783;49.710;8.842;2023-03-21T04:57:34;99164.78;;;6.76;100.00
52927;BME280;40783;49.710;8.842;2023-03-21T05:00:00;99164.78;;;6.76;100.00
52927;BME280;40783;49.710;8.842;2023-03-21T05:02:25;99168.09;;;6.68;100.00
52927;BME280;40783;49.710;8.842;2023-03-21T05:04:50;99164.75;;;6.66;100.00
52927;BME280;40783;49.710;8.842;2023-03-21T05:07:18;99163.50;;;6.71;100.00
52927;BME280;40783;49.710;8.842;2023-03-21T05:09:52;99162.25;;;6.75;100.00
52927;BME280;40783;49.710;8.842;2023-03-21T05:12:19;99167.84;;;6.72;100.00
52927;BME280;40783;49.710;8.842;2023-03-21T05:14:47;99164.59;;;6.68;100.00
52927;BME280;40783;49.710;8.842;2023-03-21T05:17:12;99164.47;;;6.70;100.00
52927;BME280;40783;49.710;8.842;2023-03-21T05:19:47;99162.78;;;6.68;100.00
52927;BME280;40783;49.710;8.842;2023-03-21T05:22:14;99158.97;;;6.61;100.00
52927;BME280;40783;49.710;8.842;2023-03-21T05:24:43;99163.59;;;6.59;100.00
52927;BME280;40783;49.710;8.842;2023-03-21T05:27:13;99168.44;;;6.54;100.00
52927;BME280;40783;49.710;8.842;2023-03-21T05:29:50;99167.75;;;6.52;100.00
52927;BME280;40783;49.710;8.842;2023-03-21T05:32:15;99157.13;;;6.52;100.00
52927;BME280;40783;49.710;8.842;2023-03-21T05:34:40;99157.56;;;6.57;100.00
52927;BME280;40783;49.710;8.842;2023-03-21T05:37:05;99161.09;;;6.67;100.00
52927;BME280;40783;49.710;8.842;2023-03-21T05:39:30;99143.66;;;6.75;100.00
52927;BME280;40783;49.710;8.842;2023-03-21T05:41:55;99156.16;;;6.84;100.00
52927;BME280;40783;49.710;8.842;2023-03-21T05:44:23;99144.41;;;6.96;100.00
52927;BME280;40783;49.710;8.842;2023-03-21T05:46:51;99140.50;;;7.01;100.00
52927;BME280;40783;49.710;8.842;2023-03-21T05:49:16;99144.16;;;7.00;100.00
52927;BME280;40783;49.710;8.842;2023-03-21T05:51:41;99148.66;;;7.09;100.00
52927;BME280;40783;49.710;8.842;2023-03-21T05:54:07;99150.94;;;7.13;100.00
52927;BME280;40783;49.710;8.842;2023-03-21T05:56:34;99153.16;;;7.18;100.00
52927;BME280;40783;49.710;8.842;2023-03-21T05:59:00;99150.41;;;7.30;100.00
52927;BME280;40783;49.710;8.842;2023-03-21T06:01:25;99146.91;;;7.39;100.00
52927;BME280;40783;49.710;8.842;2023-03-21T06:03:50;99144.09;;;7.50;100.00
52927;BME280;40783;49.710;8.842;2023-03-21T06:06:15;99148.56;;;7.30;100.00
52927;BME280;40783;49.710;8.842;2023-03-21T06:08:41;99147.31;;;7.24;100.00
52927;BME280;40783;49.710;8.842;2023-03-21T06:11:06;99148.00;;;7.26;100.00
52927;BME280;40783;49.710;8.842;2023-03-21T06:13:40;99142.56;;;7.38;100.00
52927;BME280;40783;49.710;8.842;2023-03-21T06:16:08;99152.09;;;7.50;100.00
52927;BME280;40783;49.710;8.842;2023-03-21T06:18:35;99154.63;;;7.62;100.00
52927;BME280;40783;49.710;8.842;2023-03-21T06:21:03;99154.06;;;7.58;100.00
52927;BME280;40783;49.710;8.842;2023-03-21T06:23:28;99155.75;;;7.69;100.00
52927;BME280;40783;49.710;8.842;2023-03-21T06:25:54;99157.00;;;7.75;100.00
52927;BME280;40783;49.710;8.842;2023-03-21T06:28:19;99164.16;;;7.74;100.00
52927;BME280;40783;49.710;8.842;2023-03-21T06:30:47;99161.22;;;7.77;100.00
52927;BME280;40783;49.710;8.842;2023-03-21T06:33:14;99164.31;;;7.82;100.00
52927;BME280;40783;49.710;8.842;2023-03-21T06:35:39;99166.41;;;7.89;100.00
52927;BME280;40783;49.710;8.842;2023-03-21T06:38:04;99169.75;;;8.10;100.00
52927;BME280;40783;49.710;8.842;2023-03-21T06:40:30;99167.22;;;8.19;100.00
52927;BME280;40783;49.710;8.842;2023-03-21T06:42:57;99175.06;;;8.30;100.00
52927;BME280;40783;49.710;8.842;2023-03-21T06:45:25;99166.63;;;8.25;100.00
52927;BME280;40783;49.710;8.842;2023-03-21T06:47:53;99173.66;;;8.26;100.00
52927;BME280;40783;49.710;8.842;2023-03-21T06:50:18;99178.69;;;8.29;100.00
52927;BME280;40783;49.710;8.842;2023-03-21T06:52:43;99182.31;;;8.38;100.00
52927;BME280;40783;49.710;8.842;2023-03-21T06:55:08;99167.72;;;8.52;100.00
52927;BME280;40783;49.710;8.842;2023-03-21T06:57:34;99171.06;;;8.64;100.00
52927;BME280;40783;49.710;8.842;2023-03-21T06:59:59;99172.94;;;8.43;100.00
52927;BME280;40783;49.710;8.842;2023-03-21T07:02:24;99164.34;;;8.50;100.00
52927;BME280;40783;49.710;8.842;2023-03-21T07:04:49;99170.63;;;8.68;100.00
52927;BME280;40783;49.710;8.842;2023-03-21T07:07:15;99182.78;;;8.81;100.00
52927;BME280;40783;49.710;8.842;2023-03-21T07:09:40;99169.06;;;9.03;100.00
52927;BME280;40783;49.710;8.842;2023-03-21T07:12:05;99164.72;;;9.02;100.00
52927;BME280;40783;49.710;8.842;2023-03-21T07:14:30;99174.91;;;9.17;100.00
52927;BME280;40783;49.710;8.842;2023-03-21T07:16:58;99177.38;;;9.28;100.00
52927;BME280;40783;49.710;8.842;2023-03-21T07:19:25;99177.78;;;9.33;100.00
52927;BME280;40783;49.710;8.842;2023-03-21T07:21:53;99173.22;;;9.44;100.00
52927;BME280;40783;49.710;8.842;2023-03-21T07:24:18;99170.63;;;9.52;100.00
52927;BME280;40783;49.710;8.842;2023-03-21T07:26:46;99167.13;;;9.70;100.00
52927;BME280;40783;49.710;8.842;2023-03-21T07:29:11;99157.59;;;9.85;99.40
52927;BME280;40783;49.710;8.842;2023-03-21T07:31:39;99168.34;;;9.93;97.87
52927;BME280;40783;49.710;8.842;2023-03-21T07:34:07;99166.66;;;9.92;97.32
52927;BME280;40783;49.710;8.842;2023-03-21T07:36:32;99161.78;;;10.06;97.22
52927;BME280;40783;49.710;8.842;2023-03-21T07:38:57;99167.16;;;10.32;95.49
52927;BME280;40783;49.710;8.842;2023-03-21T07:41:23;99155.91;;;10.29;92.74
52927;BME280;40783;49.710;8.842;2023-03-21T07:43:48;99160.94;;;10.32;92.68
52927;BME280;40783;49.710;8.842;2023-03-21T07:46:13;99154.75;;;10.49;92.03
52927;BME280;40783;49.710;8.842;2023-03-21T07:48:38;99153.84;;;10.67;91.22
52927;BME280;40783;49.710;8.842;2023-03-21T07:51:06;99153.47;;;10.62;90.54
52927;BME280;40783;49.710;8.842;2023-03-21T07:53:31;99160.78;;;10.51;90.33
52927;BME280;40783;49.710;8.842;2023-03-21T07:55:56;99153.69;;;10.68;89.18
52927;BME280;40783;49.710;8.842;2023-03-21T07:58:22;99161.84;;;10.59;89.17
52927;BME280;40783;49.710;8.842;2023-03-21T08:00:47;99158.56;;;10.73;88.23
52927;BME280;40783;49.710;8.842;2023-03-21T08:03:13;99156.25;;;10.78;86.93
52927;BME280;40783;49.710;8.842;2023-03-21T08:05:38;99160.31;;;10.91;88.68
52927;BME280;40783;49.710;8.842;2023-03-21T08:08:04;99159.66;;;10.89;86.99
52927;BME280;40783;49.710;8.842;2023-03-21T08:10:29;99160.19;;;11.01;87.99
52927;BME280;40783;49.710;8.842;2023-03-21T08:12:55;99154.25;;;10.80;90.03
52927;BME280;40783;49.710;8.842;2023-03-21T08:15:20;99164.69;;;10.92;89.24
52927;BME280;40783;49.710;8.842;2023-03-21T08:17:45;99167.97;;;10.86;90.18
52927;BME280;40783;49.710;8.842;2023-03-21T08:20:15;99171.03;;;10.91;89.71
52927;BME280;40783;49.710;8.842;2023-03-21T08:22:40;99170.88;;;11.01;89.49
52927;BME280;40783;49.710;8.842;2023-03-21T08:25:06;99169.16;;;11.26;88.86
52927;BME280;40783;49.710;8.842;2023-03-21T08:27:32;99168.31;;;11.25;89.99
52927;BME280;40783;49.710;8.842;2023-03-21T08:29:58;99166.06;;;11.04;89.11
52927;BME280;40783;49.710;8.842;2023-03-21T08:32:26;99162.88;;;11.01;89.50
52927;BME280;40783;49.710;8.842;2023-03-21T08:34:56;99156.41;;;11.11;88.16
52927;BME280;40783;49.710;8.842;2023-03-21T08:37:22;99172.78;;;11.08;88.93
52927;BME280;40783;49.710;8.842;2023-03-21T08:39:51;99158.59;;;11.16;89.93
52927;BME280;40783;49.710;8.842;2023-03-21T08:42:16;99151.41;;;11.25;86.09
52927;BME280;40783;49.710;8.842;2023-03-21T08:44:41;99159.38;;;11.60;84.77
52927;BME280;40783;49.710;8.842;2023-03-21T08:47:07;99154.69;;;11.70;83.70
52927;BME280;40783;49.710;8.842;2023-03-21T08:49:35;99155.88;;;11.84;81.81
52927;BME280;40783;49.710;8.842;2023-03-21T08:52:00;99163.56;;;11.79;78.78
52927;BME280;40783;49.710;8.842;2023-03-21T08:54:25;99157.75;;;11.92;78.82
52927;BME280;40783;49.710;8.842;2023-03-21T08:56:50;99162.97;;;12.01;80.27
52927;BME280;40783;49.710;8.842;2023-03-21T08:59:16;99149.84;;;12.23;76.21
52927;BME280;40783;49.710;8.842;2023-03-21T09:01:41;99158.75;;;12.32;77.28
52927;BME280;40783;49.710;8.842;2023-03-21T09:04:09;99154.88;;;12.26;76.44
52927;BME280;40783;49.710;8.842;2023-03-21T09:06:37;99146.50;;;12.21;75.98
52927;BME280;40783;49.710;8.842;2023-03-21T09:09:02;99148.69;;;12.26;77.14
52927;BME280;40783;49.710;8.842;2023-03-21T09:11:29;99147.19;;;12.23;75.62
52927;BME280;40783;49.710;8.842;2023-03-21T09:13:55;99151.88;;;12.29;75.85
52927;BME280;40783;49.710;8.842;2023-03-21T09:16:20;99135.44;;;12.24;79.04
52927;BME280;40783;49.710;8.842;2023-03-21T09:18:45;99145.16;;;12.34;79.46
52927;BME280;40783;49.710;8.842;2023-03-21T09:21:15;99144.81;;;12.53;76.09
52927;BME280;40783;49.710;8.842;2023-03-21T09:23:42;99139.13;;;12.23;77.31
52927;BME280;40783;49.710;8.842;2023-03-21T09:26:10;99144.50;;;12.31;75.74
52927;BME280;40783;49.710;8.842;2023-03-21T09:28:36;99142.47;;;12.34;75.57
52927;BME280;40783;49.710;8.842;2023-03-21T09:31:02;99142.81;;;12.39;77.98
52927;BME280;40783;49.710;8.842;2023-03-21T09:33:28;99143.00;;;12.29;75.66
52927;BME280;40783;49.710;8.842;2023-03-21T09:35:54;99139.47;;;12.37;76.73
52927;BME280;40783;49.710;8.842;2023-03-21T09:38:19;99139.13;;;12.40;75.24
52927;BME280;40783;49.710;8.842;2023-03-21T09:41:08;99138.13;;;12.24;73.72
52927;BME280;40783;49.710;8.842;2023-03-21T09:46:09;99132.94;;;12.23;76.78
52927;BME280;40783;49.710;8.842;2023-03-21T09:48:57;99130.78;;;12.18;77.37
52927;BME280;40783;49.710;8.842;2023-03-21T09:51:26;99138.66;;;12.20;77.07
52927;BME280;40783;49.710;8.842;2023-03-21T09:53:53;99138.81;;;12.26;77.40
52927;BME280;40783;49.710;8.842;2023-03-21T09:56:19;99133.09;;;12.38;76.15
52927;BME280;40783;49.710;8.842;2023-03-21T09:58:48;99147.34;;;12.38;78.00
52927;BME280;40783;49.710;8.842;2023-03-21T10:01:26;99138.44;;;12.46;74.13
52927;BME280;40783;49.710;8.842;2023-03-21T10:03:54;99149.66;;;12.50;74.55
52927;BME280;40783;49.710;8.842;2023-03-21T10:06:20;99149.84;;;12.40;74.81
52927;BME280;40783;49.710;8.842;2023-03-21T10:08:57;99138.75;;;12.59;73.32
52927;BME280;40783;49.710;8.842;2023-03-21T10:11:28;99143.72;;;12.79;73.81
52927;BME280;40783;49.710;8.842;2023-03-21T10:14:01;99135.50;;;12.81;73.05
52927;BME280;40783;49.710;8.842;2023-03-21T10:16:29;99140.91;;;12.64;72.89
52927;BME280;40783;49.710;8.842;2023-03-21T10:18:58;99138.00;;;12.82;72.16
52927;BME280;40783;49.710;8.842;2023-03-21T10:21:26;99141.72;;;12.73;72.70
52927;BME280;40783;49.710;8.842;2023-03-21T10:23:52;99146.06;;;12.74;72.69
52927;BME280;40783;49.710;8.842;2023-03-21T10:26:21;99136.72;;;12.70;74.33
52927;BME280;40783;49.710;8.842;2023-03-21T10:28:50;99139.56;;;12.60;73.28
52927;BME280;40783;49.710;8.842;2023-03-21T10:31:17;99136.75;;;12.53;74.53
52927;BME280;40783;49.710;8.842;2023-03-21T10:33:43;99135.75;;;12.54;74.15
52927;BME280;40783;49.710;8.842;2023-03-21T10:36:10;99138.97;;;12.41;75.44
52927;BME280;40783;49.710;8.842;2023-03-21T10:38:38;99129.06;;;12.42;74.51
52927;BME280;40783;49.710;8.842;2023-03-21T10:41:04;99137.78;;;12.44;74.41
52927;BME280;40783;49.710;8.842;2023-03-21T10:43:32;99126.22;;;12.43;73.04
52927;BME280;40783;49.710;8.842;2023-03-21T10:45:58;99130.03;;;12.57;70.01
52927;BME280;40783;49.710;8.842;2023-03-21T10:48:29;99124.00;;;12.64;69.73
52927;BME280;40783;49.710;8.842;2023-03-21T10:50:59;99122.50;;;12.53;71.28
52927;BME280;40783;49.710;8.842;2023-03-21T10:53:58;99133.03;;;12.63;72.15
52927;BME280;40783;49.710;8.842;2023-03-21T10:56:16;99126.63;;;12.72;73.47
52927;BME280;40783;49.710;8.842;2023-03-21T10:58:44;99121.50;;;12.45;73.73
52927;BME280;40783;49.710;8.842;2023-03-21T11:01:13;99121.13;;;12.57;71.61
52927;BME280;40783;49.710;8.842;2023-03-21T11:03:44;99120.31;;;12.65;70.35
52927;BME280;40783;49.710;8.842;2023-03-21T11:06:29;99125.69;;;12.48;71.78
52927;BME280;40783;49.710;8.842;2023-03-21T11:09:06;99112.91;;;12.67;72.58
52927;BME280;40783;49.710;8.842;2023-03-21T11:11:38;99120.31;;;12.65;73.86
52927;BME280;40783;49.710;8.842;2023-03-21T11:14:05;99116.59;;;12.66;72.71
52927;BME280;40783;49.710;8.842;2023-03-21T11:19:09;99121.31;;;12.64;74.24
52927;BME280;40783;49.710;8.842;2023-03-21T11:21:38;99118.13;;;12.52;78.18
52927;BME280;40783;49.710;8.842;2023-03-21T11:24:03;99117.31;;;12.43;79.31
52927;BME280;40783;49.710;8.842;2023-03-21T11:26:32;99116.63;;;12.57;79.16
52927;BME280;40783;49.710;8.842;2023-03-21T11:29:00;99124.72;;;12.41;81.56
52927;BME280;40783;49.710;8.842;2023-03-21T11:31:38;99113.28;;;12.47;82.12
52927;BME280;40783;49.710;8.842;2023-03-21T11:34:04;99116.53;;;12.26;83.88
52927;BME280;40783;49.710;8.842;2023-03-21T11:36:32;99114.00;;;12.32;85.87
52927;BME280;40783;49.710;8.842;2023-03-21T11:38:58;99119.03;;;12.27;85.33
52927;BME280;40783;49.710;8.842;2023-03-21T11:41:29;99115.00;;;12.31;87.43
52927;BME280;40783;49.710;8.842;2023-03-21T11:43:55;99113.97;;;12.41;87.71
52927;BME280;40783;49.710;8.842;2023-03-21T11:46:24;99109.06;;;12.53;89.11
52927;BME280;40783;49.710;8.842;2023-03-21T11:48:49;99112.31;;;12.40;89.02
52927;BME280;40783;49.710;8.842;2023-03-21T11:51:23;99098.88;;;12.48;91.43
52927;BME280;40783;49.710;8.842;2023-03-21T12:01:17;99104.88;;;12.58;94.80
52927;BME280;40783;49.710;8.842;2023-03-21T12:09:16;99103.91;;;12.51;95.23
52927;BME280;40783;49.710;8.842;2023-03-21T12:11:51;99096.44;;;12.13;93.76
52927;BME280;40783;49.710;8.842;2023-03-21T12:16:57;99081.13;;;12.47;99.08
52927;BME280;40783;49.710;8.842;2023-03-21T12:19:43;99078.44;;;12.39;93.65
52927;BME280;40783;49.710;8.842;2023-03-21T12:24:54;99078.66;;;12.29;94.51
52927;BME280;40783;49.710;8.842;2023-03-21T12:27:29;99067.25;;;12.35;98.13
52927;BME280;40783;49.710;8.842;2023-03-21T12:30:40;99062.44;;;11.89;99.76
52927;BME280;40783;49.710;8.842;2023-03-21T12:38:03;99058.91;;;12.05;100.00
52927;BME280;40783;49.710;8.842;2023-03-21T12:40:38;99066.78;;;11.98;100.00
52927;BME280;40783;49.710;8.842;2023-03-21T12:45:37;99060.56;;;12.14;100.00
52927;BME280;40783;49.710;8.842;2023-03-21T12:48:13;99054.72;;;12.11;99.42
52927;BME280;40783;49.710;8.842;2023-03-21T12:50:39;99042.97;;;12.20;98.95
52927;BME280;40783;49.710;8.842;2023-03-21T12:53:27;99043.94;;;12.27;99.56
52927;BME280;40783;49.710;8.842;2023-03-21T12:55:55;99036.41;;;12.39;97.20
52927;BME280;40783;49.710;8.842;2023-03-21T12:58:24;99030.47;;;12.52;94.74
52927;BME280;40783;49.710;8.842;2023-03-21T13:00:53;99030.41;;;12.69;94.11
52927;BME280;40783;49.710;8.842;2023-03-21T13:03:20;99035.56;;;12.79;90.65
52927;BME280;40783;49.710;8.842;2023-03-21T13:05:51;99031.38;;;12.99;88.73
52927;BME280;40783;49.710;8.842;2023-03-21T13:08:24;99026.63;;;13.10;92.39
52927;BME280;40783;49.710;8.842;2023-03-21T13:10:54;99017.34;;;13.20;86.03
52927;BME280;40783;49.710;8.842;2023-03-21T13:16:19;99015.53;;;12.89;91.29
52927;BME280;40783;49.710;8.842;2023-03-21T13:24:00;99003.19;;;12.72;90.85
52927;BME280;40783;49.710;8.842;2023-03-21T13:26:32;99002.16;;;12.81;91.48
52927;BME280;40783;49.710;8.842;2023-03-21T13:29:00;99003.19;;;12.72;91.34
52927;BME280;40783;49.710;8.842;2023-03-21T13:31:28;98996.56;;;12.91;91.52
52927;BME280;40783;49.710;8.842;2023-03-21T13:33:53;98988.38;;;12.84;91.38
52927;BME280;40783;49.710;8.842;2023-03-21T13:36:25;98985.34;;;12.87;89.71
52927;BME280;40783;49.710;8.842;2023-03-21T13:38:52;98992.88;;;12.60;91.88
52927;BME280;40783;49.710;8.842;2023-03-21T13:41:32;98988.78;;;12.73;91.85
52927;BME280;40783;49.710;8.842;2023-03-21T13:54:15;98978.50;;;12.53;89.90
52927;BME280;40783;49.710;8.842;2023-03-21T13:59:10;98977.94;;;12.26;88.29
52927;BME280;40783;49.710;8.842;2023-03-21T14:01:40;98980.59;;;12.35;93.59
52927;BME280;40783;49.710;8.842;2023-03-21T14:06:41;98985.25;;;12.41;97.64
52927;BME280;40783;49.710;8.842;2023-03-21T14:09:07;98975.56;;;12.31;100.00
52927;BME280;40783;49.710;8.842;2023-03-21T14:11:33;98972.56;;;12.26;100.00
52927;BME280;40783;49.710;8.842;2023-03-21T14:14:00;98968.63;;;12.14;100.00
52927;BME280;40783;49.710;8.842;2023-03-21T14:16:29;98965.97;;;12.06;100.00
52927;BME280;40783;49.710;8.842;2023-03-21T14:18:59;98965.28;;;12.12;100.00
52927;BME280;40783;49.710;8.842;2023-03-21T14:21:29;98961.94;;;12.10;100.00
52927;BME280;40783;49.710;8.842;2023-03-21T14:24:13;98962.97;;;12.00;100.00
52927;BME280;40783;49.710;8.842;2023-03-21T14:26:45;98958.25;;;12.11;100.00
52927;BME280;40783;49.710;8.842;2023-03-21T14:29:24;98954.81;;;12.25;100.00
52927;BME280;40783;49.710;8.842;2023-03-21T14:31:50;98957.81;;;12.30;100.00
52927;BME280;40783;49.710;8.842;2023-03-21T14:34:18;98965.47;;;12.42;100.00
52927;BME280;40783;49.710;8.842;2023-03-21T14:36:44;98947.72;;;12.41;100.00
52927;BME280;40783;49.710;8.842;2023-03-21T14:39:11;98945.69;;;12.43;100.00
52927;BME280;40783;49.710;8.842;2023-03-21T14:41:45;98943.19;;;12.41;100.00